Franklin, Minnesota
Current Conditions -  °F | °C
As of 7:53 PM on Wednesday 22 Oct 2014 (Local Time) from KRWF Reporting Station
Overcast Overcast  
Wind Chill: 63°   Ceiling: 5500
Heat Index: 63°   Visibility: 10mi
Dew Point: 46°   Wind: 15mph
Humidity: 54%   Direction: 150°SSE
Pressure: 29.97"   Gusts: NA
Location:  44.53°N, 94.88°W
Report Text: KRWF 230053Z AUTO 15013KT 10SM SCT047 OVC055 17/08 A2997 RMK AO2 SLP149 T01720078
Loading
Personal Weather Stations






























Interactive Weather Map
Tropical Storm Tracking
New forecast layout! Learn more

10-Day Weather Forecast

Advertisements
Track Severe Weather on mobile